Time;durP1;ratioP1;P1;durP2;ratioP2;P2;SDS_P1;SDS_P2;PMS_P1;PMS_P2;Temp;Humidity;BMP_temperature;BMP_pressure;BME280_temperature;BME280_humidity;BME280_pressure;Samples;Min_cycle;Max_cycle;Signal;HPM_P1;HPM_P2
2022/07/24 00:00:13;;;;;;;12.67;9.00;;;;;;;;;;4999987;28;20776;-75
2022/07/24 00:02:40;;;;;;;12.87;8.87;;;;;;;;;;5002975;28;20650;-75
2022/07/24 00:05:09;;;;;;;15.53;8.93;;;;;;;;;;5003404;28;20223;-76
2022/07/24 00:07:37;;;;;;;14.63;8.83;;;;;;;;;;5004002;28;20218;-75
2022/07/24 00:10:04;;;;;;;11.73;8.63;;;;;;;;;;5005922;28;20252;-76
2022/07/24 00:12:31;;;;;;;13.40;8.50;;;;;;;;;;5006887;28;20563;-76
2022/07/24 00:14:59;;;;;;;15.00;9.40;;;;;;;;;;5006456;28;20688;-76
2022/07/24 00:17:26;;;;;;;14.00;8.77;;;;;;;;;;5003857;28;20208;-76
2022/07/24 00:19:53;;;;;;;16.40;9.47;;;;;;;;;;5004698;28;20200;-76
2022/07/24 00:22:23;;;;;;;15.27;8.87;;;;;;;;;;5005005;28;20334;-76
2022/07/24 00:24:50;;;;;;;12.90;9.20;;;;;;;;;;5008318;28;20220;-76
2022/07/24 00:27:17;;;;;;;11.90;8.83;;;;;;;;;;5005368;28;20264;-76
2022/07/24 00:29:45;;;;;;;12.67;9.30;;;;;;;;;;5006504;28;20196;-76
2022/07/24 00:32:12;;;;;;;12.47;8.83;;;;;;;;;;5005603;28;20569;-76
2022/07/24 00:34:39;;;;;;;10.87;8.30;;;;;;;;;;5008919;28;20582;-76
2022/07/24 00:37:06;;;;;;;11.37;8.17;;;;;;;;;;5006121;28;20255;-76
2022/07/24 00:39:35;;;;;;;12.37;8.73;;;;;;;;;;5006028;28;20240;-76
2022/07/24 00:42:02;;;;;;;14.47;9.00;;;;;;;;;;5007430;28;20221;-76
2022/07/24 00:44:29;;;;;;;12.73;9.10;;;;;;;;;;5006700;28;20798;-76
2022/07/24 00:46:56;;;;;;;11.43;8.17;;;;;;;;;;5002532;28;20236;-76
2022/07/24 00:49:24;;;;;;;11.00;8.00;;;;;;;;;;5003776;28;20255;-76
2022/07/24 00:51:52;;;;;;;10.87;8.00;;;;;;;;;;5007814;28;20661;-76
2022/07/24 00:54:20;;;;;;;13.03;8.33;;;;;;;;;;5007476;28;20209;-76
2022/07/24 00:56:49;;;;;;;15.00;8.37;;;;;;;;;;5002662;28;20217;-76
2022/07/24 00:59:16;;;;;;;13.90;7.97;;;;;;;;;;5007975;28;20205;-76
2022/07/24 01:01:43;;;;;;;14.20;8.20;;;;;;;;;;5008016;28;20262;-76
2022/07/24 01:04:11;;;;;;;12.13;8.33;;;;;;;;;;5004641;28;20212;-76
2022/07/24 01:06:38;;;;;;;10.00;7.93;;;;;;;;;;5006994;28;20752;-76
2022/07/24 01:09:05;;;;;;;14.33;7.97;;;;;;;;;;5007683;28;20214;-76
2022/07/24 01:11:32;;;;;;;11.97;7.90;;;;;;;;;;5005115;28;20221;-76
2022/07/24 01:14:01;;;;;;;9.37;7.23;;;;;;;;;;5007582;28;20588;-77
2022/07/24 01:16:29;;;;;;;9.93;7.87;;;;;;;;;;5006978;28;20287;-77
2022/07/24 01:18:56;;;;;;;12.97;8.17;;;;;;;;;;5006850;28;20755;-77
2022/07/24 01:21:25;;;;;;;15.83;8.23;;;;;;;;;;5003352;28;20316;-76
2022/07/24 01:23:52;;;;;;;10.93;7.90;;;;;;;;;;5003342;28;20756;-76
2022/07/24 01:26:19;;;;;;;14.07;8.20;;;;;;;;;;5003654;28;20800;-76
2022/07/24 01:28:47;;;;;;;10.77;8.00;;;;;;;;;;5007792;28;20659;-76
2022/07/24 01:31:14;;;;;;;12.50;8.37;;;;;;;;;;5005810;28;20274;-76
2022/07/24 01:33:41;;;;;;;12.33;8.90;;;;;;;;;;5004467;28;20738;-76
2022/07/24 01:36:08;;;;;;;10.53;8.43;;;;;;;;;;5003627;28;20207;-76
2022/07/24 01:38:37;;;;;;;11.40;8.70;;;;;;;;;;5007687;28;20196;-76
2022/07/24 01:41:04;;;;;;;11.63;8.60;;;;;;;;;;5007943;28;20685;-76
2022/07/24 01:43:31;;;;;;;13.77;8.40;;;;;;;;;;5008941;28;20206;-76
2022/07/24 01:45:59;;;;;;;10.80;8.00;;;;;;;;;;5004587;28;20776;-75
2022/07/24 01:48:26;;;;;;;10.83;7.93;;;;;;;;;;5003220;28;20351;-75
2022/07/24 01:50:53;;;;;;;9.23;7.70;;;;;;;;;;5007583;28;20223;-75
2022/07/24 01:53:20;;;;;;;12.43;7.83;;;;;;;;;;5004348;28;20219;-75
2022/07/24 01:55:50;;;;;;;10.73;7.70;;;;;;;;;;5002802;28;20222;-75
2022/07/24 01:58:17;;;;;;;14.73;7.93;;;;;;;;;;5004687;28;20208;-75
2022/07/24 02:00:45;;;;;;;10.97;7.87;;;;;;;;;;5002942;28;20228;-76
2022/07/24 02:03:12;;;;;;;13.67;8.80;;;;;;;;;;5005741;28;20196;-76
2022/07/24 02:05:39;;;;;;;14.37;8.10;;;;;;;;;;5003979;28;20813;-76
2022/07/24 02:08:06;;;;;;;12.30;7.70;;;;;;;;;;5005348;28;20612;-75
2022/07/24 02:10:34;;;;;;;11.07;7.70;;;;;;;;;;5004509;28;20234;-75
2022/07/24 02:13:03;;;;;;;10.87;7.97;;;;;;;;;;5006113;28;20730;-76
2022/07/24 02:15:30;;;;;;;13.93;8.13;;;;;;;;;;5002929;28;20231;-76
2022/07/24 02:17:59;;;;;;;15.73;9.63;;;;;;;;;;5001937;28;20295;-76
2022/07/24 02:20:26;;;;;;;12.07;8.37;;;;;;;;;;5004601;28;20966;-76
2022/07/24 02:22:53;;;;;;;12.00;8.73;;;;;;;;;;5002427;28;20595;-75
2022/07/24 02:25:21;;;;;;;11.13;8.03;;;;;;;;;;5002065;28;20255;-76
2022/07/24 02:27:48;;;;;;;12.00;8.13;;;;;;;;;;5006913;28;20232;-76
2022/07/24 02:30:18;;;;;;;13.40;7.70;;;;;;;;;;5001489;28;20240;-76
2022/07/24 02:32:45;;;;;;;9.93;7.47;;;;;;;;;;5001407;28;20291;-76
2022/07/24 02:35:12;;;;;;;12.63;8.30;;;;;;;;;;5003045;28;20244;-76
2022/07/24 02:37:40;;;;;;;12.00;7.70;;;;;;;;;;5003225;28;20212;-76
2022/07/24 02:40:08;;;;;;;11.93;8.20;;;;;;;;;;5006988;28;20222;-75
2022/07/24 02:42:35;;;;;;;11.50;7.53;;;;;;;;;;5001065;28;20753;-76
2022/07/24 02:45:02;;;;;;;11.60;8.00;;;;;;;;;;5002702;28;20235;-76
2022/07/24 02:47:31;;;;;;;13.40;8.83;;;;;;;;;;5003524;28;20204;-76
2022/07/24 02:49:58;;;;;;;10.27;7.70;;;;;;;;;;5003393;28;20858;-76
2022/07/24 02:52:25;;;;;;;11.57;8.03;;;;;;;;;;5003461;28;20406;-76
2022/07/24 02:54:53;;;;;;;12.60;8.67;;;;;;;;;;5004171;28;20255;-75
2022/07/24 02:57:20;;;;;;;10.17;7.93;;;;;;;;;;5004139;28;20295;-75
2022/07/24 02:59:51;;;;;;;10.17;7.77;;;;;;;;;;5006278;28;20564;-75
2022/07/24 03:02:19;;;;;;;12.07;8.00;;;;;;;;;;5001541;28;20612;-75
2022/07/24 03:04:47;;;;;;;10.93;8.37;;;;;;;;;;5003174;28;20679;-76
2022/07/24 03:07:14;;;;;;;11.63;8.47;;;;;;;;;;5005143;28;20793;-76
2022/07/24 03:09:41;;;;;;;11.73;8.17;;;;;;;;;;5007090;28;20232;-76
2022/07/24 03:12:09;;;;;;;12.77;7.73;;;;;;;;;;5004540;28;20204;-76
2022/07/24 03:14:37;;;;;;;11.37;8.10;;;;;;;;;;4999190;28;20236;-77
2022/07/24 03:17:05;;;;;;;14.17;8.37;;;;;;;;;;5005134;28;20204;-75
2022/07/24 03:19:32;;;;;;;10.80;8.07;;;;;;;;;;5003930;28;20196;-76
2022/07/24 03:22:00;;;;;;;10.87;7.80;;;;;;;;;;5005225;28;20228;-76
2022/07/24 03:24:28;;;;;;;11.57;8.13;;;;;;;;;;5001130;28;20385;-76
2022/07/24 03:26:55;;;;;;;12.50;7.93;;;;;;;;;;5005808;28;20231;-76
2022/07/24 03:29:23;;;;;;;11.40;8.37;;;;;;;;;;5005658;28;20211;-76
2022/07/24 03:31:50;;;;;;;12.13;8.63;;;;;;;;;;5002106;28;20220;-76
2022/07/24 03:34:17;;;;;;;12.97;8.43;;;;;;;;;;5002496;28;20233;-76
2022/07/24 03:36:44;;;;;;;11.37;8.43;;;;;;;;;;5003429;28;20197;-75
2022/07/24 03:39:13;;;;;;;11.20;8.07;;;;;;;;;;5002736;28;20208;-76
2022/07/24 03:41:40;;;;;;;12.30;8.73;;;;;;;;;;5003315;28;20690;-76
2022/07/24 03:44:07;;;;;;;11.83;8.40;;;;;;;;;;5004045;28;20293;-75
2022/07/24 03:46:35;;;;;;;13.67;8.23;;;;;;;;;;5004910;28;20219;-76
2022/07/24 03:49:02;;;;;;;13.97;8.50;;;;;;;;;;5010224;28;20729;-76
2022/07/24 03:51:29;;;;;;;11.80;8.13;;;;;;;;;;5006410;28;20232;-75
2022/07/24 03:53:56;;;;;;;12.03;8.67;;;;;;;;;;5005665;28;20208;-75
2022/07/24 03:56:25;;;;;;;11.33;8.30;;;;;;;;;;5003596;28;20401;-76
2022/07/24 03:58:52;;;;;;;11.33;7.70;;;;;;;;;;5006679;28;20210;-76
2022/07/24 04:01:19;;;;;;;11.47;8.47;;;;;;;;;;5003386;28;21219;-76
2022/07/24 04:03:46;;;;;;;12.83;8.30;;;;;;;;;;5007707;28;20212;-76
2022/07/24 04:06:13;;;;;;;11.20;8.30;;;;;;;;;;5006505;28;20220;-76
2022/07/24 04:08:41;;;;;;;11.93;8.73;;;;;;;;;;5004619;28;20292;-76
2022/07/24 04:11:08;;;;;;;13.80;8.63;;;;;;;;;;5007698;28;20224;-74
2022/07/24 04:13:36;;;;;;;10.60;7.63;;;;;;;;;;5002395;28;20328;-75
2022/07/24 04:16:04;;;;;;;10.23;7.50;;;;;;;;;;5006171;28;20197;-76
2022/07/24 04:18:31;;;;;;;12.27;7.23;;;;;;;;;;5005574;28;20683;-76
2022/07/24 04:20:58;;;;;;;10.00;7.20;;;;;;;;;;5002780;28;20257;-77
2022/07/24 04:23:25;;;;;;;7.87;6.03;;;;;;;;;;5006350;28;20204;-76
2022/07/24 04:25:52;;;;;;;7.97;5.83;;;;;;;;;;5006110;28;20255;-76
2022/07/24 04:28:19;;;;;;;9.23;6.47;;;;;;;;;;5003517;28;20283;-76
2022/07/24 04:30:48;;;;;;;6.97;5.97;;;;;;;;;;5006554;28;20621;-76
2022/07/24 04:33:15;;;;;;;8.47;6.57;;;;;;;;;;5007373;28;20204;-76
2022/07/24 04:35:42;;;;;;;8.53;5.63;;;;;;;;;;5006883;28;20193;-76
2022/07/24 04:38:09;;;;;;;7.90;5.70;;;;;;;;;;5005343;28;20343;-75
2022/07/24 04:40:37;;;;;;;7.40;5.77;;;;;;;;;;5008608;28;20291;-76
2022/07/24 04:43:04;;;;;;;6.33;5.50;;;;;;;;;;5005245;28;20200;-76
2022/07/24 04:45:31;;;;;;;7.50;5.57;;;;;;;;;;5003501;28;20240;-75
2022/07/24 04:47:59;;;;;;;8.20;5.50;;;;;;;;;;5004560;28;20215;-76
2022/07/24 04:50:27;;;;;;;11.43;5.60;;;;;;;;;;5007008;28;20256;-76
2022/07/24 04:52:54;;;;;;;7.53;5.50;;;;;;;;;;5008444;28;20200;-76
2022/07/24 04:55:21;;;;;;;7.73;5.40;;;;;;;;;;5006234;28;20211;-75
2022/07/24 04:57:48;;;;;;;7.67;5.23;;;;;;;;;;5003674;28;20755;-75
2022/07/24 05:00:16;;;;;;;7.37;5.03;;;;;;;;;;5010022;28;20242;-75
2022/07/24 05:02:43;;;;;;;7.60;5.00;;;;;;;;;;5004412;28;20200;-76
2022/07/24 05:05:12;;;;;;;8.63;5.07;;;;;;;;;;5006395;28;20635;-76
2022/07/24 05:07:39;;;;;;;8.17;5.00;;;;;;;;;;5006866;28;20220;-75
2022/07/24 05:10:07;;;;;;;6.40;5.10;;;;;;;;;;5006889;28;20596;-75
2022/07/24 05:12:34;;;;;;;6.87;5.33;;;;;;;;;;5007803;28;20679;-75
2022/07/24 05:15:01;;;;;;;6.60;5.27;;;;;;;;;;5004563;28;20205;-75
2022/07/24 05:17:28;;;;;;;8.73;5.17;;;;;;;;;;5006058;28;20213;-75
2022/07/24 05:19:56;;;;;;;6.70;4.90;;;;;;;;;;5006442;28;20639;-76
2022/07/24 05:22:24;;;;;;;5.63;4.93;;;;;;;;;;5004977;28;20300;-76
2022/07/24 05:24:51;;;;;;;8.77;5.27;;;;;;;;;;5006083;28;20657;-75
2022/07/24 05:27:19;;;;;;;5.80;4.93;;;;;;;;;;5001665;28;21706;-75
2022/07/24 05:29:47;;;;;;;7.03;4.63;;;;;;;;;;5008045;28;20204;-75
2022/07/24 05:32:14;;;;;;;5.80;4.70;;;;;;;;;;5003992;28;20275;-75
2022/07/24 05:34:42;;;;;;;8.13;4.50;;;;;;;;;;5004921;28;20211;-76
2022/07/24 05:37:09;;;;;;;7.07;4.47;;;;;;;;;;5006253;28;20339;-75
2022/07/24 05:39:37;;;;;;;7.17;4.53;;;;;;;;;;5005014;28;20239;-75
2022/07/24 05:42:05;;;;;;;5.07;4.17;;;;;;;;;;5002482;28;20698;-75
2022/07/24 05:44:32;;;;;;;9.20;4.80;;;;;;;;;;5004914;28;20675;-76
2022/07/24 05:47:00;;;;;;;6.47;4.30;;;;;;;;;;5003480;28;20223;-76
2022/07/24 05:49:28;;;;;;;6.93;4.80;;;;;;;;;;5000749;28;20208;-76
2022/07/24 05:51:55;;;;;;;4.73;4.23;;;;;;;;;;5004516;28;20243;-76
2022/07/24 05:54:22;;;;;;;5.77;4.17;;;;;;;;;;5005919;28;20205;-76
2022/07/24 05:56:51;;;;;;;6.30;4.50;;;;;;;;;;5002796;28;20215;-76
2022/07/24 05:59:18;;;;;;;6.17;4.23;;;;;;;;;;5004734;28;20299;-77
2022/07/24 06:01:45;;;;;;;4.90;3.83;;;;;;;;;;5001940;28;20232;-77
2022/07/24 06:04:12;;;;;;;4.60;3.90;;;;;;;;;;5004920;28;20208;-76
2022/07/24 06:06:40;;;;;;;5.23;4.00;;;;;;;;;;5003708;28;20294;-76
2022/07/24 06:09:07;;;;;;;5.33;3.87;;;;;;;;;;5006298;28;20196;-77
2022/07/24 06:11:34;;;;;;;6.40;4.50;;;;;;;;;;5005634;28;20310;-76
2022/07/24 06:14:03;;;;;;;7.17;4.30;;;;;;;;;;5007140;28;20202;-77
2022/07/24 06:16:30;;;;;;;5.63;3.90;;;;;;;;;;5004544;28;20653;-76
2022/07/24 06:18:57;;;;;;;7.40;3.90;;;;;;;;;;5000895;28;20284;-77
2022/07/24 06:21:24;;;;;;;5.77;3.60;;;;;;;;;;5002447;28;20322;-77
2022/07/24 06:23:51;;;;;;;5.53;3.50;;;;;;;;;;5005957;28;20287;-76
2022/07/24 06:26:18;;;;;;;6.73;3.40;;;;;;;;;;5001474;28;20714;-77
2022/07/24 06:28:46;;;;;;;5.00;3.60;;;;;;;;;;5005547;28;20266;-76
2022/07/24 06:31:14;;;;;;;5.27;3.20;;;;;;;;;;5002221;28;20235;-76
2022/07/24 06:33:41;;;;;;;7.00;3.50;;;;;;;;;;5007127;28;20208;-77
2022/07/24 06:36:09;;;;;;;5.37;3.40;;;;;;;;;;5006058;28;20291;-75
2022/07/24 06:38:37;;;;;;;5.33;3.50;;;;;;;;;;5001750;28;20214;-76
2022/07/24 06:41:05;;;;;;;3.40;3.10;;;;;;;;;;5006089;28;20315;-77
2022/07/24 06:43:32;;;;;;;7.00;3.67;;;;;;;;;;5006074;28;20239;-77
2022/07/24 06:45:59;;;;;;;4.83;3.23;;;;;;;;;;5007308;28;20204;-77
2022/07/24 06:48:28;;;;;;;5.17;3.20;;;;;;;;;;5008651;28;20636;-77
2022/07/24 06:50:55;;;;;;;4.07;3.50;;;;;;;;;;5011691;28;20311;-77
2022/07/24 06:53:22;;;;;;;3.90;3.07;;;;;;;;;;5006998;28;20652;-77
2022/07/24 06:55:53;;;;;;;6.43;3.30;;;;;;;;;;5005492;28;20292;-76
2022/07/24 06:58:20;;;;;;;5.93;3.17;;;;;;;;;;5006396;28;20233;-77
2022/07/24 07:00:47;;;;;;;4.30;2.83;;;;;;;;;;5002555;28;20323;-76
2022/07/24 07:03:15;;;;;;;3.97;2.90;;;;;;;;;;5004528;28;20573;-77
2022/07/24 07:05:43;;;;;;;5.97;2.87;;;;;;;;;;5003597;28;20199;-77
2022/07/24 07:08:10;;;;;;;7.00;3.10;;;;;;;;;;5005508;28;20319;-76
2022/07/24 07:10:37;;;;;;;4.30;2.80;;;;;;;;;;5003618;28;20673;-77
2022/07/24 07:13:05;;;;;;;6.73;2.90;;;;;;;;;;5004751;28;20203;-76
2022/07/24 07:15:32;;;;;;;4.60;3.10;;;;;;;;;;5004644;28;20291;-76
2022/07/24 07:17:59;;;;;;;4.10;2.70;;;;;;;;;;5005868;28;20287;-76
2022/07/24 07:20:26;;;;;;;3.87;3.00;;;;;;;;;;5006135;28;20315;-76
2022/07/24 07:22:55;;;;;;;5.90;2.97;;;;;;;;;;5007104;28;20822;-76
2022/07/24 07:25:22;;;;;;;3.27;2.70;;;;;;;;;;5008458;28;20300;-77
2022/07/24 07:27:49;;;;;;;3.80;2.80;;;;;;;;;;5008245;28;20221;-75
2022/07/24 07:30:17;;;;;;;6.27;2.90;;;;;;;;;;5004497;28;20951;-76
2022/07/24 07:32:44;;;;;;;3.90;2.77;;;;;;;;;;5005916;28;20215;-77
2022/07/24 07:35:11;;;;;;;5.30;2.90;;;;;;;;;;5001016;28;20662;-76
2022/07/24 07:37:38;;;;;;;4.17;3.00;;;;;;;;;;5002884;28;20201;-76
2022/07/24 07:40:08;;;;;;;4.53;2.70;;;;;;;;;;5006473;28;20802;-77
2022/07/24 07:42:35;;;;;;;3.75;2.63;;;;;;;;;;5005622;28;20205;-76
2022/07/24 07:45:02;;;;;;;5.63;2.70;;;;;;;;;;5004471;28;20610;-77
2022/07/24 07:47:29;;;;;;;5.00;2.40;;;;;;;;;;5006025;28;20275;-77
2022/07/24 07:49:57;;;;;;;4.78;2.40;;;;;;;;;;5010119;28;20209;-77
2022/07/24 07:52:24;;;;;;;2.90;2.10;;;;;;;;;;5008650;28;20706;-77
2022/07/24 07:54:52;;;;;;;4.40;2.45;;;;;;;;;;5006915;28;20221;-78
2022/07/24 07:57:20;;;;;;;3.28;2.10;;;;;;;;;;5005124;28;20216;-77
2022/07/24 07:59:47;;;;;;;2.85;2.08;;;;;;;;;;5009539;28;20212;-78
2022/07/24 08:02:15;;;;;;;11.98;2.40;;;;;;;;;;5009314;28;20283;-77
2022/07/24 08:04:42;;;;;;;3.70;2.40;;;;;;;;;;5008136;28;20208;-77
2022/07/24 08:07:10;;;;;;;3.10;2.20;;;;;;;;;;5004362;28;20213;-77
2022/07/24 08:09:38;;;;;;;3.28;2.15;;;;;;;;;;5004910;28;20278;-77
2022/07/24 08:12:05;;;;;;;2.67;2.00;;;;;;;;;;5007837;28;20223;-78
2022/07/24 08:14:34;;;;;;;3.45;2.38;;;;;;;;;;5005926;28;20204;-77
2022/07/24 08:17:01;;;;;;;2.53;2.00;;;;;;;;;;5006071;28;20293;-77
2022/07/24 08:19:28;;;;;;;6.30;2.28;;;;;;;;;;5006470;28;20665;-77
2022/07/24 08:21:55;;;;;;;4.30;2.25;;;;;;;;;;5006578;28;20311;-77
2022/07/24 08:24:23;;;;;;;3.67;2.40;;;;;;;;;;5003432;28;20467;-77
2022/07/24 08:26:50;;;;;;;3.35;2.40;;;;;;;;;;5007864;28;20590;-76
2022/07/24 08:29:17;;;;;;;3.97;2.50;;;;;;;;;;5002597;28;20212;-77
2022/07/24 08:31:46;;;;;;;2.95;2.35;;;;;;;;;;5005392;28;20218;-77
2022/07/24 08:34:13;;;;;;;6.32;2.80;;;;;;;;;;5006004;28;20211;-77
2022/07/24 08:36:40;;;;;;;4.10;2.65;;;;;;;;;;5002933;28;20208;-77
2022/07/24 08:39:07;;;;;;;5.75;2.53;;;;;;;;;;5007156;28;20204;-77
2022/07/24 08:41:35;;;;;;;5.20;2.30;;;;;;;;;;5004466;28;20310;-77
2022/07/24 08:44:03;;;;;;;4.93;2.33;;;;;;;;;;5005346;28;20286;-77
2022/07/24 08:46:30;;;;;;;5.32;2.85;;;;;;;;;;5007687;28;20689;-78
2022/07/24 08:49:02;;;;;;;6.03;2.30;;;;;;;;;;5006807;28;20224;-77
2022/07/24 08:51:32;;;;;;;5.63;3.13;;;;;;;;;;5007332;28;20418;-77
2022/07/24 08:54:02;;;;;;;3.92;2.53;;;;;;;;;;5005020;28;21063;-77
2022/07/24 08:56:29;;;;;;;5.78;3.03;;;;;;;;;;5008823;28;20263;-76
2022/07/24 08:58:59;;;;;;;5.27;3.03;;;;;;;;;;5006595;28;20198;-76
2022/07/24 09:01:27;;;;;;;3.97;2.80;;;;;;;;;;4999085;28;20244;-76
2022/07/24 09:03:54;;;;;;;4.70;3.00;;;;;;;;;;5006993;28;20200;-76
2022/07/24 09:06:23;;;;;;;4.33;3.07;;;;;;;;;;5001517;28;20218;-76
2022/07/24 09:08:58;;;;;;;7.00;3.20;;;;;;;;;;5006097;28;20316;-76
2022/07/24 09:11:28;;;;;;;4.83;3.10;;;;;;;;;;5007327;28;20668;-76
2022/07/24 09:16:36;;;;;;;3.67;3.00;;;;;;;;;;5001760;28;20292;-76
2022/07/24 09:19:05;;;;;;;7.20;3.10;;;;;;;;;;5001927;28;20201;-76
2022/07/24 09:21:36;;;;;;;5.13;3.00;;;;;;;;;;5004345;28;20238;-76
2022/07/24 09:24:12;;;;;;;4.33;2.97;;;;;;;;;;5003887;28;20200;-76
2022/07/24 09:26:46;;;;;;;4.53;3.33;;;;;;;;;;5009901;28;20243;-76
2022/07/24 09:29:14;;;;;;;5.63;3.57;;;;;;;;;;4999255;28;20754;-76
2022/07/24 09:31:55;;;;;;;4.63;3.10;;;;;;;;;;5004122;28;20878;-76
2022/07/24 09:34:22;;;;;;;6.83;3.87;;;;;;;;;;5008713;28;20197;-76
2022/07/24 09:37:01;;;;;;;7.90;3.47;;;;;;;;;;5004986;28;20244;-76
2022/07/24 09:39:29;;;;;;;7.47;3.50;;;;;;;;;;5004651;28;20689;-76
2022/07/24 09:41:58;;;;;;;6.70;3.90;;;;;;;;;;5004843;28;20229;-76
2022/07/24 09:44:25;;;;;;;5.90;3.83;;;;;;;;;;5007631;28;20575;-76
2022/07/24 09:46:56;;;;;;;7.47;4.33;;;;;;;;;;5007991;28;20601;-76
2022/07/24 09:49:24;;;;;;;6.53;4.00;;;;;;;;;;5008692;28;21352;-76
2022/07/24 09:52:06;;;;;;;4.07;3.30;;;;;;;;;;5004745;28;20227;-76
2022/07/24 09:54:35;;;;;;;7.50;4.17;;;;;;;;;;5007971;28;20212;-76
2022/07/24 09:57:15;;;;;;;6.20;3.60;;;;;;;;;;5008689;28;20200;-76
2022/07/24 09:59:44;;;;;;;5.57;4.07;;;;;;;;;;5002277;28;20196;-76
2022/07/24 10:02:13;;;;;;;6.53;3.60;;;;;;;;;;5005102;28;20224;-76
2022/07/24 10:04:42;;;;;;;6.80;4.67;;;;;;;;;;5000904;28;20204;-76
2022/07/24 10:07:11;;;;;;;6.03;3.83;;;;;;;;;;5006332;28;20678;-76
2022/07/24 10:09:42;;;;;;;6.53;3.87;;;;;;;;;;5005108;28;20209;-76
2022/07/24 10:12:12;;;;;;;5.70;3.97;;;;;;;;;;5005407;28;20207;-76
2022/07/24 10:14:40;;;;;;;6.60;3.73;;;;;;;;;;5003250;28;20205;-76
2022/07/24 10:17:08;;;;;;;4.50;3.70;;;;;;;;;;5005791;28;20228;-76
2022/07/24 10:19:39;;;;;;;7.97;4.10;;;;;;;;;;5008335;28;20208;-76
2022/07/24 10:22:09;;;;;;;4.93;4.13;;;;;;;;;;5005721;28;20228;-76
2022/07/24 10:24:57;;;;;;;5.90;4.10;;;;;;;;;;5007903;28;20319;-76
2022/07/24 10:27:26;;;;;;;6.30;4.40;;;;;;;;;;5002569;28;20225;-75
2022/07/24 10:29:54;;;;;;;6.83;4.33;;;;;;;;;;5006664;28;20263;-76
2022/07/24 10:32:21;;;;;;;6.90;4.67;;;;;;;;;;5007062;28;20216;-76
2022/07/24 10:34:51;;;;;;;8.93;4.37;;;;;;;;;;5005917;28;20296;-76
2022/07/24 10:37:23;;;;;;;7.40;4.50;;;;;;;;;;5004052;28;20542;-76
2022/07/24 10:39:56;;;;;;;6.83;4.67;;;;;;;;;;5006417;28;20289;-76
2022/07/24 10:42:25;;;;;;;5.63;4.47;;;;;;;;;;5006802;28;20295;-76
2022/07/24 10:45:14;;;;;;;6.80;4.43;;;;;;;;;;5008662;28;20294;-76
2022/07/24 10:47:42;;;;;;;8.10;4.20;;;;;;;;;;5003217;28;20273;-76
2022/07/24 10:50:09;;;;;;;6.63;4.67;;;;;;;;;;5007234;28;20221;-76
2022/07/24 10:52:37;;;;;;;6.60;4.03;;;;;;;;;;5002741;28;20204;-75
2022/07/24 10:55:23;;;;;;;6.93;4.40;;;;;;;;;;5002281;28;20254;-76
2022/07/24 10:57:55;;;;;;;6.57;3.90;;;;;;;;;;5006882;28;20210;-76
2022/07/24 11:00:23;;;;;;;6.97;4.33;;;;;;;;;;5005959;28;20241;-76
2022/07/24 11:02:57;;;;;;;6.10;3.53;;;;;;;;;;5007043;28;20227;-76
2022/07/24 11:05:26;;;;;;;8.60;4.03;;;;;;;;;;5003162;28;20244;-76
2022/07/24 11:08:12;;;;;;;5.73;3.80;;;;;;;;;;5006230;28;20707;-76
2022/07/24 11:10:46;;;;;;;5.33;3.97;;;;;;;;;;5002952;28;20235;-76
2022/07/24 11:13:28;;;;;;;6.47;4.20;;;;;;;;;;5005207;28;20259;-76
2022/07/24 11:16:18;;;;;;;8.30;4.37;;;;;;;;;;5005998;28;20233;-76
2022/07/24 11:19:00;;;;;;;6.20;4.20;;;;;;;;;;5001512;28;20196;-76
2022/07/24 11:21:29;;;;;;;6.20;4.30;;;;;;;;;;5005412;28;20228;-76
2022/07/24 11:24:11;;;;;;;5.23;3.60;;;;;;;;;;4998844;28;20203;-75
2022/07/24 11:26:40;;;;;;;6.00;3.83;;;;;;;;;;5002996;28;20290;-75
2022/07/24 11:29:17;;;;;;;6.60;4.07;;;;;;;;;;5005547;28;20631;-76
2022/07/24 11:31:46;;;;;;;4.77;3.67;;;;;;;;;;5004935;28;20230;-75
2022/07/24 11:34:13;;;;;;;5.37;4.00;;;;;;;;;;5004980;28;20275;-76
2022/07/24 11:36:42;;;;;;;6.10;3.87;;;;;;;;;;4999412;28;20306;-75
2022/07/24 11:39:09;;;;;;;5.87;4.10;;;;;;;;;;5004525;28;20200;-76
2022/07/24 11:41:46;;;;;;;5.43;3.90;;;;;;;;;;5003208;28;20250;-76
2022/07/24 11:44:13;;;;;;;5.90;3.70;;;;;;;;;;5003199;28;20204;-76
2022/07/24 11:46:42;;;;;;;6.70;3.87;;;;;;;;;;5001737;28;20973;-75
2022/07/24 11:49:11;;;;;;;5.37;3.70;;;;;;;;;;5004424;28;20221;-76
2022/07/24 11:51:44;;;;;;;5.60;3.70;;;;;;;;;;5000799;28;20225;-76
2022/07/24 11:54:13;;;;;;;7.20;3.97;;;;;;;;;;5001230;28;20635;-76
2022/07/24 11:56:40;;;;;;;4.47;3.50;;;;;;;;;;5003285;28;20220;-76
2022/07/24 11:59:08;;;;;;;5.80;3.63;;;;;;;;;;5005708;28;20214;-76
2022/07/24 12:01:35;;;;;;;7.80;3.73;;;;;;;;;;5005661;28;20235;-76
2022/07/24 12:04:02;;;;;;;6.17;3.90;;;;;;;;;;5003082;28;20251;-76
2022/07/24 12:06:31;;;;;;;7.27;3.93;;;;;;;;;;5006023;28;20310;-76
2022/07/24 12:08:59;;;;;;;6.47;3.90;;;;;;;;;;5008101;28;20239;-76
2022/07/24 12:11:26;;;;;;;5.93;4.00;;;;;;;;;;5007193;28;20771;-77
2022/07/24 12:13:53;;;;;;;4.20;3.50;;;;;;;;;;5009404;28;20203;-77
2022/07/24 12:16:28;;;;;;;4.33;3.50;;;;;;;;;;5005244;28;20641;-77
2022/07/24 12:19:10;;;;;;;5.30;3.77;;;;;;;;;;5008898;28;20285;-77
2022/07/24 12:21:39;;;;;;;5.83;3.50;;;;;;;;;;5007966;28;20232;-76
2022/07/24 12:24:07;;;;;;;5.17;3.30;;;;;;;;;;5007580;28;20707;-77
2022/07/24 12:26:34;;;;;;;5.90;3.93;;;;;;;;;;5006195;28;20213;-76
2022/07/24 12:29:10;;;;;;;5.00;3.33;;;;;;;;;;5010015;28;20279;-76
2022/07/24 12:31:37;;;;;;;5.13;3.30;;;;;;;;;;5004929;28;20314;-76
2022/07/24 12:34:05;;;;;;;4.57;3.43;;;;;;;;;;5009714;28;20287;-76
2022/07/24 12:36:33;;;;;;;5.53;3.60;;;;;;;;;;5005536;28;20212;-76
2022/07/24 12:39:03;;;;;;;7.50;3.10;;;;;;;;;;5005081;28;20299;-74
2022/07/24 12:41:30;;;;;;;4.37;3.30;;;;;;;;;;5005163;28;20629;-75
2022/07/24 12:43:58;;;;;;;4.90;3.23;;;;;;;;;;5005368;28;20296;-75
2022/07/24 12:46:30;;;;;;;4.53;3.43;;;;;;;;;;5001075;28;20208;-75
2022/07/24 12:48:58;;;;;;;6.40;4.10;;;;;;;;;;5004012;28;20220;-75
2022/07/24 12:51:26;;;;;;;4.50;3.40;;;;;;;;;;5000007;28;20233;-75
2022/07/24 12:53:54;;;;;;;4.93;3.33;;;;;;;;;;5003832;28;20288;-74
2022/07/24 12:56:23;;;;;;;5.07;3.20;;;;;;;;;;5006704;28;20306;-74
2022/07/24 12:58:58;;;;;;;7.33;3.50;;;;;;;;;;5008899;28;20264;-74
2022/07/24 13:01:26;;;;;;;5.53;3.50;;;;;;;;;;5006701;28;20238;-75
2022/07/24 13:03:58;;;;;;;6.13;3.60;;;;;;;;;;5006097;28;20214;-76
2022/07/24 13:06:33;;;;;;;5.77;3.33;;;;;;;;;;5003206;28;20209;-76
2022/07/24 13:09:00;;;;;;;6.70;3.63;;;;;;;;;;5007599;28;20223;-76
2022/07/24 13:11:29;;;;;;;5.70;3.50;;;;;;;;;;5008094;28;20268;-75
2022/07/24 13:13:56;;;;;;;4.83;3.03;;;;;;;;;;5004853;28;20217;-76
2022/07/24 13:16:27;;;;;;;3.47;2.80;;;;;;;;;;5008569;28;20292;-77
2022/07/24 13:18:54;;;;;;;4.50;3.30;;;;;;;;;;5005857;28;20285;-76
2022/07/24 13:21:22;;;;;;;7.20;3.50;;;;;;;;;;5005952;28;20320;-76
2022/07/24 13:23:49;;;;;;;4.50;3.00;;;;;;;;;;5005034;28;20392;-76
2022/07/24 13:26:16;;;;;;;5.83;3.17;;;;;;;;;;5007772;28;20221;-75
2022/07/24 13:28:45;;;;;;;4.60;3.00;;;;;;;;;;5008206;28;20246;-75
2022/07/24 13:31:12;;;;;;;3.30;2.80;;;;;;;;;;5007327;28;20228;-74
2022/07/24 13:33:39;;;;;;;4.67;3.37;;;;;;;;;;5000525;28;20206;-75
2022/07/24 13:36:07;;;;;;;9.77;3.40;;;;;;;;;;5005064;28;20236;-76
2022/07/24 13:38:34;;;;;;;4.37;3.13;;;;;;;;;;5004569;28;20592;-75
2022/07/24 13:41:01;;;;;;;5.90;3.00;;;;;;;;;;5003078;28;20720;-75
2022/07/24 13:43:29;;;;;;;4.50;3.00;;;;;;;;;;5003584;28;20353;-75
2022/07/24 13:45:57;;;;;;;4.47;3.43;;;;;;;;;;5005551;28;20219;-75
2022/07/24 13:48:25;;;;;;;4.63;2.90;;;;;;;;;;5001795;28;20293;-75
2022/07/24 13:50:52;;;;;;;3.67;2.87;;;;;;;;;;5000754;28;20261;-75
2022/07/24 13:53:19;;;;;;;5.20;2.90;;;;;;;;;;5005828;28;20303;-76
2022/07/24 13:55:46;;;;;;;4.27;3.20;;;;;;;;;;5001343;28;20234;-75
2022/07/24 13:58:14;;;;;;;3.70;2.83;;;;;;;;;;5002291;28;20214;-75
2022/07/24 14:00:41;;;;;;;4.90;3.03;;;;;;;;;;5001656;28;20230;-75
2022/07/24 14:03:10;;;;;;;3.77;2.70;;;;;;;;;;5003699;28;20554;-76
2022/07/24 14:05:37;;;;;;;4.57;2.57;;;;;;;;;;5003713;28;20199;-76
2022/07/24 14:08:04;;;;;;;4.27;2.80;;;;;;;;;;5001684;28;20293;-76
2022/07/24 14:10:31;;;;;;;5.60;2.93;;;;;;;;;;5002866;28;20229;-76
2022/07/24 14:12:59;;;;;;;4.53;2.90;;;;;;;;;;5002891;28;20242;-75
2022/07/24 14:15:26;;;;;;;5.67;3.00;;;;;;;;;;5004493;28;20207;-75
2022/07/24 14:17:53;;;;;;;3.90;3.00;;;;;;;;;;5004146;28;20205;-75
2022/07/24 14:20:22;;;;;;;6.10;2.67;;;;;;;;;;5002083;28;20221;-75
2022/07/24 14:22:49;;;;;;;4.77;3.30;;;;;;;;;;5004649;28;20695;-75
2022/07/24 14:25:16;;;;;;;6.67;3.20;;;;;;;;;;5000587;28;20761;-76
2022/07/24 14:27:44;;;;;;;5.07;3.00;;;;;;;;;;4997764;28;20419;-76
2022/07/24 14:30:11;;;;;;;3.77;2.97;;;;;;;;;;4998555;28;20273;-76
2022/07/24 14:32:39;;;;;;;4.80;3.13;;;;;;;;;;5002220;28;20211;-74
2022/07/24 14:35:07;;;;;;;4.67;3.37;;;;;;;;;;5004266;28;20212;-75
2022/07/24 14:37:36;;;;;;;3.63;2.80;;;;;;;;;;5004882;28;20646;-75
2022/07/24 14:40:05;;;;;;;4.93;3.37;;;;;;;;;;5004789;28;20204;-75
2022/07/24 14:42:32;;;;;;;7.00;3.60;;;;;;;;;;5005159;28;20654;-75
2022/07/24 14:44:59;;;;;;;6.07;3.47;;;;;;;;;;5003292;28;20577;-75
2022/07/24 14:47:26;;;;;;;7.37;3.70;;;;;;;;;;5002147;28;20336;-75